Time;durP1;ratioP1;P1;durP2;ratioP2;P2;SDS_P1;SDS_P2;PMS_P1;PMS_P2;Temp;Humidity;BMP_temperature;BMP_pressure;BME280_temperature;BME280_humidity;BME280_pressure;Samples;Min_cycle;Max_cycle;Signal;HPM_P1;HPM_P2
2022/03/24 00:01:24;;;;;;;20.15;17.98;;;4.90;99.90;;;;;;5027377;28;20018;-71
2022/03/24 00:03:49;;;;;;;21.45;17.85;;;5.10;99.90;;;;;;5024267;28;20048;-71
2022/03/24 00:06:15;;;;;;;23.05;18.10;;;5.10;99.90;;;;;;5046784;28;20119;-71
2022/03/24 00:08:40;;;;;;;21.50;17.67;;;5.30;99.90;;;;;;5029484;28;20385;-72
2022/03/24 00:11:06;;;;;;;22.65;18.85;;;5.30;99.90;;;;;;5043000;28;20478;-71
2022/03/24 00:13:31;;;;;;;24.08;19.38;;;5.40;99.90;;;;;;5044697;28;20455;-71
2022/03/24 00:15:58;;;;;;;21.25;18.98;;;5.20;99.90;;;;;;5045346;28;20056;-72
2022/03/24 00:18:25;;;;;;;23.20;19.50;;;5.30;99.90;;;;;;5045555;28;20013;-72
2022/03/24 00:20:50;;;;;;;28.38;20.95;;;5.10;99.90;;;;;;5043149;28;20017;-72
2022/03/24 00:23:16;;;;;;;21.67;19.15;;;4.80;99.90;;;;;;5044995;28;20376;-71
2022/03/24 00:25:41;;;;;;;22.75;18.85;;;4.70;99.90;;;;;;5035783;28;20020;-72
2022/03/24 00:28:07;;;;;;;28.50;21.33;;;4.60;99.90;;;;;;5043519;28;20041;-72
2022/03/24 00:30:33;;;;;;;25.15;21.50;;;4.50;99.90;;;;;;5045764;28;20080;-72
2022/03/24 00:32:58;;;;;;;22.95;19.52;;;4.40;99.90;;;;;;5042118;28;20037;-71
2022/03/24 00:35:24;;;;;;;22.40;18.73;;;4.30;99.90;;;;;;5028724;28;20155;-71
2022/03/24 00:37:50;;;;;;;23.40;19.63;;;4.30;99.90;;;;;;5020167;28;20083;-71
2022/03/24 00:40:17;;;;;;;22.70;20.23;;;4.10;99.90;;;;;;5045528;28;20017;-72
2022/03/24 00:42:44;;;;;;;25.00;21.42;;;4.10;99.90;;;;;;5029697;28;20024;-71
2022/03/24 00:45:15;;;;;;;24.95;20.77;;;4.00;99.90;;;;;;5041976;28;20025;-72
2022/03/24 00:47:42;;;;;;;24.20;21.08;;;4.00;99.90;;;;;;5046392;28;20017;-71
2022/03/24 00:50:09;;;;;;;23.83;19.10;;;4.00;99.90;;;;;;5042020;28;20506;-72
2022/03/24 00:52:41;;;;;;;22.50;19.77;;;3.90;99.90;;;;;;5026142;28;20021;-71
2022/03/24 00:55:11;;;;;;;24.10;20.58;;;3.70;99.90;;;;;;5043487;28;21250;-71
2022/03/24 00:57:36;;;;;;;24.92;21.92;;;3.70;99.90;;;;;;5028791;28;20071;-71
2022/03/24 01:00:03;;;;;;;24.85;21.13;;;3.80;99.90;;;;;;5039601;28;20025;-71
2022/03/24 01:02:28;;;;;;;24.30;21.45;;;3.80;99.90;;;;;;5034973;28;20032;-71
2022/03/24 01:04:55;;;;;;;24.58;21.42;;;3.90;99.90;;;;;;5040266;28;20030;-71
2022/03/24 01:07:22;;;;;;;26.58;21.30;;;3.70;99.90;;;;;;5025652;28;20070;-71
2022/03/24 01:09:47;;;;;;;24.13;21.42;;;3.60;99.90;;;;;;5025190;28;20061;-71
2022/03/24 01:12:13;;;;;;;24.00;21.23;;;3.50;99.90;;;;;;5035760;28;20059;-71
2022/03/24 01:14:39;;;;;;;25.98;20.88;;;3.60;99.90;;;;;;5025329;28;20116;-71
2022/03/24 01:17:07;;;;;;;25.30;19.73;;;3.60;99.90;;;;;;5048648;28;20056;-71
2022/03/24 01:19:33;;;;;;;26.08;21.85;;;3.80;99.90;;;;;;5040534;28;20088;-71
2022/03/24 01:21:59;;;;;;;24.33;21.13;;;3.50;99.90;;;;;;5046784;28;20017;-71
2022/03/24 01:24:25;;;;;;;25.98;22.95;;;3.40;99.90;;;;;;5036343;28;20022;-71
2022/03/24 01:26:51;;;;;;;23.58;21.00;;;3.30;99.90;;;;;;5041777;28;20036;-71
2022/03/24 01:29:16;;;;;;;27.58;23.50;;;3.30;99.90;;;;;;5040688;28;20067;-72
2022/03/24 01:31:42;;;;;;;26.13;22.40;;;3.20;99.90;;;;;;5039605;28;20485;-71
2022/03/24 01:34:09;;;;;;;25.98;22.45;;;3.30;99.90;;;;;;5018784;28;20036;-71
2022/03/24 01:36:35;;;;;;;26.25;22.55;;;3.10;99.90;;;;;;5038976;28;20100;-71
2022/03/24 01:39:01;;;;;;;27.35;22.00;;;2.70;99.90;;;;;;5033060;28;20151;-72
2022/03/24 01:41:27;;;;;;;28.52;22.05;;;2.80;99.90;;;;;;5025499;28;20102;-72
2022/03/24 01:43:52;;;;;;;24.70;21.55;;;2.70;99.90;;;;;;5024795;28;20475;-72
2022/03/24 01:46:22;;;;;;;28.70;22.77;;;2.80;99.90;;;;;;5043536;28;20017;-72
2022/03/24 01:48:47;;;;;;;27.23;22.27;;;2.60;99.90;;;;;;5024192;28;20127;-72
2022/03/24 01:51:13;;;;;;;26.33;22.90;;;2.60;99.90;;;;;;5047594;28;20072;-71
2022/03/24 01:53:39;;;;;;;24.88;21.77;;;2.60;99.90;;;;;;5021977;28;20025;-71
2022/03/24 01:56:05;;;;;;;28.75;22.27;;;2.70;99.90;;;;;;5046594;28;20371;-71
2022/03/24 01:58:31;;;;;;;28.27;23.33;;;2.60;99.90;;;;;;5024138;28;20017;-71
2022/03/24 02:01:25;;;;;;;24.98;22.27;;;2.70;99.90;;;;;;5019904;28;20434;-71
2022/03/24 02:03:52;;;;;;;25.25;21.63;;;2.80;99.90;;;;;;5044353;28;20028;-71
2022/03/24 02:06:17;;;;;;;24.92;21.67;;;2.70;99.90;;;;;;5040550;28;20490;-72
2022/03/24 02:08:43;;;;;;;24.35;20.92;;;2.70;99.90;;;;;;5045185;28;20048;-72
2022/03/24 02:11:08;;;;;;;24.33;21.58;;;2.60;99.90;;;;;;5033501;28;20064;-72
2022/03/24 02:13:35;;;;;;;25.80;21.60;;;2.70;99.90;;;;;;5019104;28;20025;-72
2022/03/24 02:16:01;;;;;;;24.65;21.98;;;2.70;99.90;;;;;;5042208;28;20013;-72
2022/03/24 02:18:27;;;;;;;24.77;20.63;;;2.60;99.90;;;;;;5025391;28;20043;-72
2022/03/24 02:20:52;;;;;;;25.63;21.70;;;2.50;99.90;;;;;;5039086;28;20048;-72
2022/03/24 02:23:18;;;;;;;26.67;22.00;;;2.30;99.90;;;;;;5011966;28;20026;-72
2022/03/24 02:25:45;;;;;;;24.50;21.92;;;2.30;99.90;;;;;;5030937;28;20029;-72
2022/03/24 02:28:10;;;;;;;24.80;22.08;;;2.30;99.90;;;;;;5035698;28;20037;-72
2022/03/24 02:30:36;;;;;;;26.15;22.10;;;2.30;99.90;;;;;;5035377;28;20036;-72
2022/03/24 02:33:01;;;;;;;25.45;22.63;;;2.30;99.90;;;;;;5035276;28;20548;-72
2022/03/24 02:35:27;;;;;;;25.33;22.48;;;2.30;99.90;;;;;;5033662;28;20026;-73
2022/03/24 02:37:52;;;;;;;27.90;23.23;;;2.30;99.90;;;;;;5024164;28;20025;-72
2022/03/24 02:40:19;;;;;;;29.30;23.63;;;2.30;99.90;;;;;;5020163;28;20026;-71
2022/03/24 02:42:46;;;;;;;26.98;23.02;;;2.20;99.90;;;;;;5015534;28;20670;-71
2022/03/24 02:45:11;;;;;;;27.35;22.27;;;2.10;99.90;;;;;;5015560;28;20033;-72
2022/03/24 02:47:38;;;;;;;26.23;22.58;;;2.00;99.90;;;;;;4997949;28;20025;-72
2022/03/24 02:50:05;;;;;;;26.83;22.50;;;1.90;99.90;;;;;;5012739;28;20080;-72
2022/03/24 02:52:30;;;;;;;25.80;23.00;;;1.90;99.90;;;;;;5017584;28;20193;-72
2022/03/24 02:54:56;;;;;;;25.30;22.08;;;2.00;99.90;;;;;;5020137;28;20105;-71
2022/03/24 02:57:21;;;;;;;27.40;23.20;;;2.10;99.90;;;;;;5014065;28;20022;-72
2022/03/24 02:59:47;;;;;;;28.85;24.95;;;2.10;99.90;;;;;;5030130;28;20101;-71
2022/03/24 03:02:15;;;;;;;28.65;24.77;;;2.10;99.90;;;;;;5014177;28;20129;-71
2022/03/24 03:04:42;;;;;;;30.05;24.77;;;2.00;99.90;;;;;;5015712;28;20053;-71
2022/03/24 03:07:08;;;;;;;29.58;25.00;;;1.80;99.90;;;;;;5017324;28;20022;-71
2022/03/24 03:09:35;;;;;;;30.35;25.13;;;1.90;99.90;;;;;;5034906;28;20388;-71
2022/03/24 03:12:01;;;;;;;30.65;26.20;;;2.10;99.90;;;;;;5008122;28;20106;-72
2022/03/24 03:14:29;;;;;;;33.22;26.73;;;2.20;99.90;;;;;;5030079;28;20029;-72
2022/03/24 03:16:59;;;;;;;31.08;25.42;;;2.20;99.90;;;;;;5008284;28;20423;-72
2022/03/24 03:19:25;;;;;;;31.15;27.08;;;2.20;99.90;;;;;;5014923;28;20468;-72
2022/03/24 03:21:52;;;;;;;29.25;25.83;;;2.20;99.90;;;;;;4997159;28;20073;-72
2022/03/24 03:24:21;;;;;;;32.95;25.85;;;2.10;99.90;;;;;;5014722;28;20026;-71
2022/03/24 03:26:47;;;;;;;29.27;25.92;;;2.00;99.90;;;;;;5014798;28;20430;-72
2022/03/24 03:29:13;;;;;;;29.35;26.00;;;1.80;99.90;;;;;;5014714;28;20033;-71
2022/03/24 03:31:38;;;;;;;29.77;26.38;;;1.80;99.90;;;;;;5014427;28;20137;-71
2022/03/24 03:34:07;;;;;;;32.28;26.98;;;1.60;99.90;;;;;;5014493;28;21520;-71
2022/03/24 03:36:33;;;;;;;31.90;26.77;;;1.70;99.90;;;;;;5014651;28;20500;-71
2022/03/24 03:38:59;;;;;;;32.25;27.08;;;1.50;99.90;;;;;;5040252;22;20053;-76
2022/03/24 03:41:26;;;;;;;32.47;26.98;;;1.60;99.90;;;;;;5004566;28;20022;-77
2022/03/24 03:43:51;;;;;;;30.98;26.80;;;1.60;99.90;;;;;;5006020;28;20108;-77
2022/03/24 03:46:17;;;;;;;26.85;23.95;;;1.60;99.90;;;;;;4996593;28;20125;-77
2022/03/24 03:48:43;;;;;;;30.17;26.33;;;1.50;99.90;;;;;;5004606;28;20488;-77
2022/03/24 03:51:09;;;;;;;32.83;26.27;;;1.40;99.90;;;;;;4988840;28;20538;-77
2022/03/24 03:53:35;;;;;;;31.13;25.98;;;1.40;99.90;;;;;;4961815;28;20028;-77
2022/03/24 03:56:07;;;;;;;30.67;26.30;;;1.50;99.90;;;;;;4981817;28;20022;-77
2022/03/24 03:58:35;;;;;;;28.27;25.00;;;1.20;99.90;;;;;;4976496;28;20029;-77
2022/03/24 04:01:01;;;;;;;28.63;25.15;;;1.00;99.90;;;;;;4984268;28;20101;-77
2022/03/24 04:03:29;;;;;;;31.88;25.95;;;1.20;99.90;;;;;;5008320;28;20433;-77
2022/03/24 04:05:57;;;;;;;28.23;24.73;;;0.90;99.90;;;;;;5006794;28;20030;-77
2022/03/24 04:08:22;;;;;;;30.33;25.63;;;0.90;99.90;;;;;;4991737;28;20031;-77
2022/03/24 04:10:49;;;;;;;28.60;25.60;;;0.80;99.90;;;;;;4981984;28;20423;-77
2022/03/24 04:13:18;;;;;;;28.27;25.20;;;0.80;99.90;;;;;;4987898;28;20447;-78
2022/03/24 04:15:45;;;;;;;31.92;25.75;;;0.90;99.90;;;;;;4974821;28;20492;-77
2022/03/24 04:18:11;;;;;;;27.30;24.25;;;1.00;99.90;;;;;;4976982;28;20022;-77
2022/03/24 04:20:36;;;;;;;29.50;25.30;;;1.00;99.90;;;;;;4963715;28;20103;-75
2022/03/24 04:23:04;;;;;;;31.38;25.13;;;1.00;99.90;;;;;;4981314;28;20062;-76
2022/03/24 04:25:30;;;;;;;30.58;26.83;;;1.10;99.90;;;;;;4963857;28;20034;-76
2022/03/24 04:27:56;;;;;;;27.77;24.80;;;1.20;99.90;;;;;;5000825;28;20391;-75
2022/03/24 04:30:22;;;;;;;28.23;25.23;;;1.10;99.90;;;;;;4982739;28;20266;-77
2022/03/24 04:32:48;;;;;;;32.55;26.73;;;1.10;99.90;;;;;;4971013;28;20026;-76
2022/03/24 04:35:15;;;;;;;33.63;27.60;;;1.10;99.90;;;;;;4976098;28;20108;-75
2022/03/24 04:37:41;;;;;;;31.80;27.13;;;1.00;99.90;;;;;;4987453;28;20038;-75
2022/03/24 04:40:07;;;;;;;32.03;26.90;;;0.80;99.90;;;;;;4993640;28;20050;-75
2022/03/24 04:42:34;;;;;;;34.08;27.75;;;0.80;99.90;;;;;;4964031;28;20050;-75
2022/03/24 04:45:00;;;;;;;34.63;27.75;;;0.80;99.90;;;;;;4980683;28;20043;-74
2022/03/24 04:47:26;;;;;;;35.17;29.17;;;0.90;99.90;;;;;;4986570;28;20034;-76
2022/03/24 04:49:51;;;;;;;32.65;27.80;;;1.00;99.90;;;;;;4987498;28;20424;-76
2022/03/24 04:52:18;;;;;;;34.67;27.85;;;1.00;99.90;;;;;;4980556;28;20038;-75
2022/03/24 04:54:44;;;;;;;34.70;28.30;;;1.00;99.90;;;;;;4980563;28;20023;-75
2022/03/24 04:57:09;;;;;;;31.25;26.88;;;0.80;99.90;;;;;;4987040;28;20034;-77
2022/03/24 04:59:35;;;;;;;30.00;25.67;;;0.90;99.90;;;;;;4987030;28;20025;-76
2022/03/24 05:02:00;;;;;;;31.15;26.85;;;0.90;99.90;;;;;;4980532;28;20476;-77
2022/03/24 05:04:26;;;;;;;32.63;28.75;;;0.80;99.90;;;;;;4980956;28;20026;-76
2022/03/24 05:06:51;;;;;;;34.90;28.88;;;0.80;99.90;;;;;;4990064;28;20049;-78
2022/03/24 05:09:17;;;;;;;31.70;28.25;;;0.60;99.90;;;;;;4974332;28;20041;-77
2022/03/24 05:11:43;;;;;;;32.15;28.60;;;0.80;99.90;;;;;;4963278;28;20030;-78
2022/03/24 05:14:09;;;;;;;31.85;27.65;;;0.70;99.90;;;;;;4981807;28;20389;-76
2022/03/24 05:16:35;;;;;;;33.63;28.80;;;0.60;99.90;;;;;;4969510;28;20019;-77
2022/03/24 05:19:01;;;;;;;40.85;31.70;;;0.70;99.90;;;;;;4986828;28;20026;-77
2022/03/24 05:21:27;;;;;;;34.85;28.48;;;0.70;99.90;;;;;;4979692;28;20030;-76
2022/03/24 05:23:53;;;;;;;33.42;27.75;;;0.70;99.90;;;;;;4980801;28;20469;-76
2022/03/24 05:26:20;;;;;;;32.33;27.63;;;0.70;99.90;;;;;;4986583;28;20508;-76
2022/03/24 05:28:47;;;;;;;31.48;27.98;;;0.80;99.90;;;;;;4986489;28;20077;-76
2022/03/24 05:31:12;;;;;;;38.10;33.45;;;0.70;99.90;;;;;;4962391;28;20023;-76
2022/03/24 05:33:38;;;;;;;36.47;31.70;;;0.70;99.90;;;;;;4980225;28;20026;-74
2022/03/24 05:36:04;;;;;;;35.20;31.40;;;0.70;99.90;;;;;;4999118;28;20022;-76
2022/03/24 05:38:30;;;;;;;37.17;30.80;;;0.60;99.90;;;;;;4999695;28;20029;-77
2022/03/24 05:40:57;;;;;;;34.25;30.30;;;0.60;99.90;;;;;;4963007;28;20022;-77
2022/03/24 05:43:23;;;;;;;34.88;29.13;;;0.40;99.90;;;;;;4963222;28;20050;-77
2022/03/24 05:45:48;;;;;;;39.22;28.90;;;0.50;99.90;;;;;;4987071;28;20074;-77
2022/03/24 05:48:14;;;;;;;33.40;27.15;;;0.30;99.90;;;;;;4969021;28;20046;-77
2022/03/24 05:50:40;;;;;;;39.38;29.25;;;0.60;99.90;;;;;;4962726;28;20041;-77
2022/03/24 05:53:06;;;;;;;40.33;28.65;;;0.60;99.90;;;;;;4981045;28;20640;-77
2022/03/24 05:55:34;;;;;;;32.22;28.02;;;0.50;99.90;;;;;;4969115;28;20026;-77
2022/03/24 05:58:00;;;;;;;32.35;27.02;;;0.60;99.90;;;;;;4967930;28;20030;-77
2022/03/24 06:00:26;;;;;;;35.22;29.60;;;0.70;99.90;;;;;;4963111;28;20015;-77
2022/03/24 06:02:53;;;;;;;35.85;28.48;;;0.70;99.90;;;;;;4992201;28;20029;-77
2022/03/24 06:05:20;;;;;;;33.33;27.80;;;0.80;99.90;;;;;;4990696;28;20094;-77
2022/03/24 06:07:46;;;;;;;33.22;28.42;;;1.00;99.90;;;;;;4991550;28;20488;-77
2022/03/24 06:10:12;;;;;;;39.70;30.77;;;1.10;99.90;;;;;;4962032;28;20052;-76
2022/03/24 06:12:38;;;;;;;34.28;27.70;;;1.30;99.90;;;;;;4989703;28;20037;-77
2022/03/24 06:15:04;;;;;;;34.33;28.13;;;1.50;99.90;;;;;;4991557;28;20034;-76
2022/03/24 06:17:30;;;;;;;38.90;29.58;;;1.60;99.90;;;;;;4969594;28;20484;-76
2022/03/24 06:19:55;;;;;;;32.85;27.65;;;1.70;99.90;;;;;;4967643;28;20023;-77
2022/03/24 06:22:21;;;;;;;33.90;28.00;;;1.80;99.90;;;;;;4986050;28;20105;-76
2022/03/24 06:24:46;;;;;;;33.42;28.98;;;1.70;99.90;;;;;;4962449;28;20062;-77
2022/03/24 06:27:13;;;;;;;33.88;29.10;;;1.80;99.90;;;;;;4961750;28;20041;-77
2022/03/24 06:29:39;;;;;;;36.53;29.73;;;1.80;99.90;;;;;;4992213;28;20022;-77
2022/03/24 06:32:06;;;;;;;37.05;29.95;;;1.90;99.90;;;;;;4978993;28;20023;-76
2022/03/24 06:34:31;;;;;;;37.85;30.00;;;2.00;99.90;;;;;;4985424;28;20065;-76
2022/03/24 06:36:57;;;;;;;45.38;31.45;;;2.30;99.90;;;;;;4986308;28;20053;-77
2022/03/24 06:39:23;;;;;;;39.63;30.05;;;2.30;99.90;;;;;;4979687;28;20109;-77
2022/03/24 06:41:48;;;;;;;38.58;30.30;;;2.50;99.90;;;;;;4961260;28;20019;-77
2022/03/24 06:44:15;;;;;;;38.28;30.60;;;2.70;99.90;;;;;;4979480;28;20496;-76
2022/03/24 06:46:41;;;;;;;37.33;31.13;;;2.90;99.90;;;;;;4978923;28;20066;-77
2022/03/24 06:49:07;;;;;;;37.25;29.67;;;3.00;99.90;;;;;;4967795;28;20058;-76
2022/03/24 06:51:34;;;;;;;36.42;30.00;;;3.10;99.90;;;;;;4968564;28;20030;-75
2022/03/24 06:54:01;;;;;;;36.63;30.42;;;3.10;99.90;;;;;;4987107;28;20022;-76
2022/03/24 06:56:26;;;;;;;37.85;31.25;;;3.10;99.90;;;;;;4961459;28;20065;-77
2022/03/24 06:58:52;;;;;;;37.00;30.77;;;3.10;99.90;;;;;;4985941;28;20505;-77
2022/03/24 07:01:19;;;;;;;38.33;30.35;;;3.30;99.90;;;;;;4991168;28;20029;-76
2022/03/24 07:03:44;;;;;;;41.22;30.30;;;3.60;99.90;;;;;;4976950;28;20391;-77
2022/03/24 07:06:10;;;;;;;38.83;31.48;;;3.60;99.90;;;;;;4969180;28;20031;-75
2022/03/24 07:08:36;;;;;;;36.65;30.27;;;3.70;99.90;;;;;;4991367;28;20118;-78
2022/03/24 07:11:06;;;;;;;38.30;29.67;;;3.80;99.90;;;;;;4964415;28;20029;-78
2022/03/24 07:13:32;;;;;;;37.05;30.85;;;3.90;99.90;;;;;;4984070;28;20026;-78
2022/03/24 07:15:58;;;;;;;36.00;30.40;;;4.00;99.90;;;;;;4965166;28;20054;-77
2022/03/24 07:18:23;;;;;;;36.97;29.40;;;4.10;99.90;;;;;;4970302;28;20452;-77
2022/03/24 07:20:50;;;;;;;37.10;30.35;;;4.20;99.90;;;;;;4971716;28;20035;-78
2022/03/24 07:23:16;;;;;;;37.08;30.30;;;4.40;99.90;;;;;;4983830;28;20405;-77
2022/03/24 07:25:42;;;;;;;35.25;29.27;;;4.50;99.90;;;;;;4982189;28;20027;-78
2022/03/24 07:28:10;;;;;;;36.42;28.98;;;4.60;99.90;;;;;;4970650;28;20031;-77
2022/03/24 07:30:35;;;;;;;33.70;28.77;;;4.60;99.90;;;;;;4988836;28;20022;-77
2022/03/24 07:33:02;;;;;;;32.92;27.85;;;4.60;99.90;;;;;;4983179;28;20072;-77
2022/03/24 07:35:30;;;;;;;33.45;27.48;;;4.70;99.90;;;;;;4964771;28;20126;-77
2022/03/24 07:37:56;;;;;;;33.63;28.30;;;4.80;99.90;;;;;;4985265;28;20037;-78
2022/03/24 07:40:22;;;;;;;32.47;26.80;;;4.90;99.90;;;;;;4968825;28;20392;-78
2022/03/24 07:42:49;;;;;;;35.13;28.52;;;4.90;99.90;;;;;;4975612;28;20373;-77
2022/03/24 07:45:15;;;;;;;34.05;28.77;;;5.10;99.90;;;;;;4970926;28;20023;-77
2022/03/24 07:48:06;;;;;;;33.67;28.52;;;5.20;99.90;;;;;;4965806;28;20026;-77
2022/03/24 07:50:32;;;;;;;33.40;28.80;;;5.30;99.90;;;;;;4981714;28;20395;-77
2022/03/24 07:53:17;;;;;;;35.40;29.27;;;5.40;99.90;;;;;;4983565;28;20037;-74
2022/03/24 07:55:46;;;;;;;36.10;29.75;;;5.50;99.90;;;;;;4975427;28;20061;-78
2022/03/24 07:58:14;;;;;;;36.25;29.50;;;5.60;99.90;;;;;;4970849;28;20029;-80
2022/03/24 08:00:40;;;;;;;32.17;26.77;;;5.80;99.90;;;;;;4984666;28;20018;-79
2022/03/24 08:03:10;;;;;;;34.70;28.92;;;6.00;99.90;;;;;;4991568;28;20424;-79
2022/03/24 08:05:36;;;;;;;35.15;28.23;;;6.10;99.90;;;;;;4984636;28;20022;-77
2022/03/24 08:08:04;;;;;;;33.92;28.42;;;6.20;99.90;;;;;;4977740;28;20030;-75
2022/03/24 08:10:30;;;;;;;34.17;28.05;;;6.30;99.90;;;;;;4967004;28;20129;-75
2022/03/24 08:12:55;;;;;;;32.50;27.25;;;6.40;99.90;;;;;;4988480;28;20118;-74
2022/03/24 08:15:21;;;;;;;36.47;28.60;;;6.50;99.90;;;;;;4966948;28;20113;-75
2022/03/24 08:17:46;;;;;;;35.65;28.23;;;6.50;99.90;;;;;;4978296;28;20538;-75
2022/03/24 08:20:12;;;;;;;36.00;27.55;;;6.50;99.90;;;;;;4983830;28;20484;-76
2022/03/24 08:22:38;;;;;;;34.83;28.77;;;6.60;99.90;;;;;;4987477;28;20038;-75
2022/03/24 08:25:08;;;;;;;33.60;28.25;;;6.80;99.90;;;;;;4967219;28;20551;-76
2022/03/24 08:27:34;;;;;;;38.13;28.00;;;7.00;99.90;;;;;;4978167;28;20026;-77
2022/03/24 08:30:00;;;;;;;37.20;29.20;;;7.10;99.90;;;;;;4988120;28;20057;-79
2022/03/24 08:32:25;;;;;;;35.47;28.35;;;7.30;99.90;;;;;;4990092;28;20034;-77
2022/03/24 08:34:51;;;;;;;35.47;28.98;;;7.30;99.90;;;;;;5011421;28;20027;-78
2022/03/24 08:37:16;;;;;;;35.08;29.13;;;7.30;99.90;;;;;;4971073;28;20026;-78
2022/03/24 08:39:42;;;;;;;38.67;29.05;;;7.50;99.90;;;;;;4974092;28;20045;-79
2022/03/24 08:42:07;;;;;;;36.40;29.55;;;7.60;99.90;;;;;;5012825;28;20029;-78
2022/03/24 08:44:33;;;;;;;35.45;29.38;;;7.70;99.90;;;;;;5011781;28;20081;-78
2022/03/24 08:46:59;;;;;;;35.75;29.80;;;7.80;99.90;;;;;;4996631;28;20503;-77
2022/03/24 08:49:24;;;;;;;37.20;28.30;;;7.80;99.90;;;;;;4974438;28;20530;-78
2022/03/24 08:51:50;;;;;;;36.30;30.00;;;8.10;99.90;;;;;;4998732;28;20026;-79
2022/03/24 08:54:15;;;;;;;34.80;28.63;;;8.40;99.90;;;;;;5011596;28;20121;-78
2022/03/24 08:56:41;;;;;;;36.45;27.85;;;8.40;99.90;;;;;;4972114;28;20118;-78
2022/03/24 08:59:06;;;;;;;35.10;28.40;;;8.40;99.90;;;;;;5011879;28;20030;-78
2022/03/24 09:01:32;;;;;;;38.65;29.52;;;8.50;99.90;;;;;;5002079;28;20036;-78
2022/03/24 09:03:58;;;;;;;34.83;29.17;;;8.60;99.90;;;;;;5011082;28;20073;-78
2022/03/24 09:06:23;;;;;;;39.88;29.52;;;8.70;99.90;;;;;;4969673;28;20030;-77
2022/03/24 09:08:49;;;;;;;42.03;29.27;;;8.70;99.90;;;;;;4991017;28;20030;-78
2022/03/24 09:11:15;;;;;;;38.08;29.75;;;8.80;99.90;;;;;;4962642;28;20030;-78
2022/03/24 09:13:41;;;;;;;37.47;28.73;;;8.90;99.90;;;;;;4986329;28;20026;-78
2022/03/24 09:16:07;;;;;;;38.35;28.50;;;9.10;99.90;;;;;;4988687;28;20031;-78
2022/03/24 09:18:34;;;;;;;37.05;29.30;;;9.30;99.90;;;;;;4985050;28;20426;-78
2022/03/24 09:20:59;;;;;;;41.95;29.20;;;9.50;99.90;;;;;;4964428;28;20396;-78
2022/03/24 09:23:26;;;;;;;39.55;28.65;;;9.60;99.90;;;;;;5004240;28;20021;-78
2022/03/24 09:25:53;;;;;;;38.92;29.13;;;9.60;99.90;;;;;;4976585;28;20018;-78
2022/03/24 09:28:19;;;;;;;39.92;29.77;;;9.60;99.90;;;;;;4981048;28;20373;-77
2022/03/24 09:30:44;;;;;;;38.50;29.17;;;9.80;99.90;;;;;;4992934;28;20108;-77
2022/03/24 09:33:10;;;;;;;39.03;29.02;;;10.00;99.90;;;;;;4982815;28;20065;-78
2022/03/24 09:35:36;;;;;;;36.38;27.95;;;10.30;99.90;;;;;;4993379;28;20023;-76
2022/03/24 09:38:02;;;;;;;37.22;29.08;;;10.40;99.90;;;;;;4973544;28;20031;-76
2022/03/24 09:40:28;;;;;;;38.92;28.85;;;10.50;99.90;;;;;;4979820;28;20022;-76
2022/03/24 09:42:56;;;;;;;39.90;28.98;;;10.60;99.90;;;;;;4983248;28;20030;-76
2022/03/24 09:45:22;;;;;;;41.80;30.25;;;10.80;99.90;;;;;;4986482;28;20425;-77
2022/03/24 09:47:48;;;;;;;36.10;29.20;;;10.80;99.90;;;;;;4982863;28;20047;-76
2022/03/24 09:50:14;;;;;;;37.72;28.38;;;10.70;99.90;;;;;;4979364;28;20391;-76
2022/03/24 09:52:40;;;;;;;38.20;29.08;;;10.90;99.90;;;;;;4965711;28;20033;-76
2022/03/24 09:55:08;;;;;;;41.03;28.50;;;10.90;99.90;;;;;;4986250;28;20105;-76
2022/03/24 09:57:34;;;;;;;35.88;27.88;;;11.10;99.90;;;;;;4992648;28;20026;-76
2022/03/24 10:00:00;;;;;;;35.90;27.92;;;11.20;99.90;;;;;;4977255;28;20022;-76
2022/03/24 10:02:28;;;;;;;41.45;28.60;;;11.40;99.90;;;;;;4965016;28;20035;-76
2022/03/24 10:05:01;;;;;;;38.75;28.70;;;11.70;99.90;;;;;;4968638;28;20038;-76
2022/03/24 10:07:28;;;;;;;38.58;27.98;;;11.80;99.90;;;;;;4984212;28;20053;-76
2022/03/24 10:09:56;;;;;;;42.67;28.38;;;11.90;99.90;;;;;;4962186;28;20126;-77
2022/03/24 10:12:23;;;;;;;38.22;27.23;;;12.00;99.90;;;;;;4963132;28;20030;-76
2022/03/24 10:15:04;;;;;;;36.67;27.63;;;12.10;99.90;;;;;;4986083;28;20027;-77
2022/03/24 10:17:31;;;;;;;37.22;27.90;;;12.40;99.90;;;;;;4966060;28;20101;-76
2022/03/24 10:19:58;;;;;;;37.72;28.10;;;12.50;99.90;;;;;;4974820;28;20019;-76
2022/03/24 10:22:24;;;;;;;39.03;27.95;;;12.50;99.90;;;;;;4991406;28;20503;-76
2022/03/24 10:24:50;;;;;;;35.38;26.50;;;12.90;99.90;;;;;;4972722;28;20062;-77
2022/03/24 10:27:41;;;;;;;37.47;26.92;;;13.10;99.90;;;;;;4992142;28;20057;-76
2022/03/24 10:30:10;;;;;;;35.75;25.88;;;13.00;99.30;;;;;;4989152;28;20046;-76
2022/03/24 10:32:36;;;;;;;34.33;24.13;;;13.20;99.30;;;;;;4992119;28;20057;-76
2022/03/24 10:35:13;;;;;;;35.92;24.75;;;13.40;98.00;;;;;;4981606;28;20027;-77
2022/03/24 10:37:48;;;;;;;35.15;25.25;;;13.60;98.00;;;;;;5005186;28;20109;-76
2022/03/24 10:40:13;;;;;;;31.42;23.60;;;13.30;95.70;;;;;;4960664;28;20027;-76
2022/03/24 10:42:41;;;;;;;27.98;21.88;;;13.70;96.30;;;;;;4980155;28;20048;-76
2022/03/24 10:45:21;;;;;;;30.55;21.85;;;13.60;93.90;;;;;;4993660;28;20603;-76
2022/03/24 10:48:00;;;;;;;33.45;23.90;;;13.50;94.40;;;;;;4985909;28;20061;-76
2022/03/24 10:50:40;;;;;;;33.53;24.10;;;13.90;94.40;;;;;;4982911;28;20018;-77
2022/03/24 10:53:13;;;;;;;34.03;24.65;;;13.90;92.80;;;;;;4974554;28;20033;-76
2022/03/24 10:55:44;;;;;;;36.08;25.75;;;13.90;92.40;;;;;;4996464;28;20037;-77
2022/03/24 10:58:40;;;;;;;34.40;25.88;;;14.20;94.00;;;;;;5006582;28;20384;-77
2022/03/24 11:01:08;;;;;;;35.08;24.98;;;14.20;93.20;;;;;;5009680;28;20033;-78
2022/03/24 11:03:33;;;;;;;34.97;26.00;;;14.30;93.10;;;;;;5003526;28;20023;-76
2022/03/24 11:06:07;;;;;;;38.58;26.75;;;14.60;93.20;;;;;;4977091;28;20022;-78
2022/03/24 11:08:34;;;;;;;40.55;26.17;;;14.80;93.20;;;;;;4996289;28;20014;-77
2022/03/24 11:11:00;;;;;;;32.97;24.25;;;14.60;91.70;;;;;;4998977;28;20479;-77
2022/03/24 11:13:47;;;;;;;32.03;23.60;;;14.50;90.90;;;;;;5001034;28;20049;-77
2022/03/24 11:16:14;;;;;;;31.13;23.15;;;14.70;91.00;;;;;;4988724;28;20479;-77
2022/03/24 11:18:41;;;;;;;32.50;24.48;;;14.90;90.90;;;;;;4992740;28;20022;-77
2022/03/24 11:21:38;;;;;;;29.17;22.70;;;15.10;89.30;;;;;;5005344;28;20027;-77
2022/03/24 11:24:05;;;;;;;32.17;22.02;;;15.00;91.20;;;;;;4971981;28;20404;-76
2022/03/24 11:26:31;;;;;;;33.42;23.50;;;15.10;86.80;;;;;;4988998;28;20475;-77
2022/03/24 11:28:58;;;;;;;30.52;22.00;;;15.20;87.80;;;;;;5006068;28;20540;-77
2022/03/24 11:31:25;;;;;;;30.73;23.13;;;15.50;89.80;;;;;;5006657;28;20053;-77
2022/03/24 11:33:54;;;;;;;31.58;23.45;;;15.60;90.00;;;;;;4994113;28;20032;-77
2022/03/24 11:36:21;;;;;;;34.35;23.27;;;15.60;86.00;;;;;;4984841;28;20025;-77
2022/03/24 11:38:50;;;;;;;31.77;23.40;;;15.50;85.70;;;;;;5006173;28;20085;-77
2022/03/24 11:41:25;;;;;;;32.25;22.95;;;15.60;87.60;;;;;;5006294;28;20014;-77
2022/03/24 11:43:55;;;;;;;30.67;21.55;;;15.70;85.10;;;;;;5005589;28;20072;-77
2022/03/24 11:46:38;;;;;;;28.75;21.33;;;15.50;85.40;;;;;;4992725;28;20017;-77
2022/03/24 11:49:19;;;;;;;28.77;21.08;;;15.90;81.10;;;;;;5002883;28;20031;-77
2022/03/24 11:51:48;;;;;;;25.95;18.83;;;15.70;79.30;;;;;;4989321;28;20018;-77
2022/03/24 11:54:25;;;;;;;27.33;20.48;;;15.60;77.00;;;;;;4978932;28;20073;-77
2022/03/24 11:57:31;;;;;;;27.00;20.60;;;15.90;79.00;;;;;;4976097;28;20024;-77
2022/03/24 12:00:15;;;;;;;24.15;18.50;;;16.50;76.70;;;;;;4978110;28;20436;-77
2022/03/24 12:02:45;;;;;;;23.13;18.05;;;16.90;74.60;;;;;;4987273;28;20018;-77
2022/03/24 12:05:12;;;;;;;22.90;17.35;;;17.20;71.70;;;;;;4987762;28;20023;-77
2022/03/24 12:07:38;;;;;;;25.30;18.58;;;17.70;71.40;;;;;;4999463;28;20432;-77
2022/03/24 12:10:07;;;;;;;23.88;18.73;;;17.90;68.80;;;;;;5002544;28;20022;-74
2022/03/24 12:12:32;;;;;;;25.63;19.60;;;18.50;69.10;;;;;;5000178;28;20026;-74
2022/03/24 12:15:15;;;;;;;24.00;18.90;;;19.20;69.60;;;;;;4997739;28;20030;-76
2022/03/24 12:18:01;;;;;;;23.35;18.90;;;19.80;66.40;;;;;;5006453;28;20030;-75
2022/03/24 12:20:26;;;;;;;23.33;18.20;;;20.00;64.80;;;;;;4999958;28;20021;-75
2022/03/24 12:22:58;;;;;;;23.85;20.40;;;20.40;62.90;;;;;;5003363;28;20034;-75
2022/03/24 12:25:26;;;;;;;27.05;19.05;;;20.60;60.70;;;;;;5005562;28;20527;-75
2022/03/24 12:28:03;;;;;;;25.55;19.30;;;20.50;63.40;;;;;;4985179;28;20391;-75
2022/03/24 12:30:42;;;;;;;21.45;16.65;;;21.40;60.70;;;;;;5009448;28;20022;-75
2022/03/24 12:33:09;;;;;;;17.73;15.82;;;20.80;58.30;;;;;;5005539;28;20018;-75
2022/03/24 12:35:49;;;;;;;15.95;14.25;;;21.10;56.50;;;;;;5002277;28;20022;-76
2022/03/24 12:38:33;;;;;;;14.68;12.15;;;21.20;56.80;;;;;;4991492;28;20053;-76